Time;durP1;ratioP1;P1;durP2;ratioP2;P2;SDS_P1;SDS_P2;PMS_P1;PMS_P2;Temp;Humidity;BMP_temperature;BMP_pressure;BME280_temperature;BME280_humidity;BME280_pressure;Samples;Min_cycle;Max_cycle;Signal;HPM_P1;HPM_P2
2023/04/04 00:01:53;;;;;;;;;;;0.20;99.90;;;;;;5023641;28;19988;-68
2023/04/04 00:04:19;;;;;;;;;;;0.20;99.90;;;;;;5023234;28;19928;-69
2023/04/04 00:06:46;;;;;;;;;;;0.80;99.90;;;;;;5022839;28;19996;-69
2023/04/04 00:09:13;;;;;;;;;;;0.10;99.90;;;;;;5023349;28;19960;-68
2023/04/04 00:11:42;;;;;;;;;;;0.20;99.90;;;;;;5023252;28;19988;-68
2023/04/04 00:14:08;;;;;;;;;;;0.20;99.90;;;;;;5023432;28;20001;-68
2023/04/04 00:16:35;;;;;;;;;;;0.20;99.90;;;;;;5022515;28;19988;-68
2023/04/04 00:19:02;;;;;;;;;;;0.20;99.90;;;;;;5023454;28;19960;-69
2023/04/04 00:21:29;;;;;;;;;;;0.20;99.90;;;;;;5023420;28;19955;-68
2023/04/04 00:23:56;;;;;;;;;;;0.20;99.90;;;;;;5022914;28;19963;-69
2023/04/04 00:26:22;;;;;;;;;;;0.20;99.90;;;;;;5023090;28;19921;-68
2023/04/04 00:28:50;;;;;;;;;;;0.30;99.90;;;;;;5027129;28;19993;-67
2023/04/04 00:31:17;;;;;;;;;;;0.30;99.90;;;;;;5026982;28;19984;-68
2023/04/04 00:33:44;;;;;;;;;;;0.30;99.90;;;;;;5026876;28;19928;-69
2023/04/04 00:36:11;;;;;;;;;;;0.30;99.90;;;;;;5026015;28;20323;-69
2023/04/04 00:38:37;;;;;;;;;;;0.30;99.90;;;;;;5026553;28;20220;-68
2023/04/04 00:41:05;;;;;;;;;;;0.30;99.90;;;;;;5024009;28;19957;-69
2023/04/04 00:43:32;;;;;;;;;;;0.30;99.90;;;;;;5026507;28;19929;-68
2023/04/04 00:46:00;;;;;;;;;;;0.30;99.90;;;;;;5026362;28;19922;-68
2023/04/04 00:48:27;;;;;;;;;;;0.20;99.90;;;;;;5026286;28;19921;-69
2023/04/04 00:50:54;;;;;;;;;;;0.20;99.90;;;;;;5026439;28;20180;-69
2023/04/04 00:53:21;;;;;;;;;;;0.30;99.90;;;;;;5026294;28;19988;-67
2023/04/04 00:55:47;;;;;;;;;;;0.20;99.90;;;;;;5025735;28;19945;-68
2023/04/04 00:58:14;;;;;;;;;;;0.30;99.90;;;;;;5026215;28;19989;-68
2023/04/04 01:00:41;;;;;;;;;;;0.20;99.90;;;;;;5005851;28;20121;-69
2023/04/04 01:03:11;;;;;;;;;;;0.20;99.90;;;;;;5006994;28;19931;-69
2023/04/04 01:05:38;;;;;;;;;;;0.20;99.90;;;;;;5015817;28;20244;-67
2023/04/04 01:08:05;;;;;;;;;;;0.10;99.90;;;;;;5026117;28;19921;-68
2023/04/04 01:10:32;;;;;;;;;;;0.10;99.90;;;;;;5026291;28;19947;-70
2023/04/04 01:12:59;;;;;;;;;;;0.10;99.90;;;;;;5026173;28;19925;-71
2023/04/04 01:15:25;;;;;;;;;;;0.10;99.90;;;;;;5026042;28;19976;-69
2023/04/04 01:17:55;;;;;;;;;;;0.10;99.90;;;;;;5025883;28;19921;-69
2023/04/04 01:20:25;;;;;;;;;;;0.10;99.90;;;;;;5025852;28;19997;-69
2023/04/04 01:22:53;;;;;;;;;;;0.10;99.90;;;;;;5026269;28;19921;-68
2023/04/04 01:25:25;;;;;;;;;;;0.10;99.90;;;;;;5025587;28;19928;-69
2023/04/04 01:27:53;;;;;;;;;;;0.10;99.90;;;;;;5025481;28;20112;-69
2023/04/04 01:30:20;;;;;;;;;;;0.10;99.90;;;;;;5025983;28;19928;-69
2023/04/04 01:32:51;;;;;;;;;;;0.10;99.90;;;;;;5025672;28;19928;-69
2023/04/04 01:35:22;;;;;;;;;;;0.10;99.90;;;;;;5025315;28;19960;-67
2023/04/04 01:37:54;;;;;;;;;;;0.10;99.90;;;;;;5024417;28;19953;-68
2023/04/04 01:40:21;;;;;;;;;;;0.10;99.90;;;;;;5025681;28;19921;-68
2023/04/04 01:42:51;;;;;;;;;;;0.10;99.90;;;;;;5022998;28;19921;-69
2023/04/04 01:45:17;;;;;;;;;;;0.00;99.90;;;;;;5025494;28;19981;-68
2023/04/04 01:47:44;;;;;;;;;;;0.00;99.90;;;;;;5024881;28;19989;-68
2023/04/04 01:50:11;;;;;;;;;;;0.00;99.90;;;;;;5025662;28;19990;-68
2023/04/04 01:52:38;;;;;;;;;;;0.00;99.90;;;;;;5025361;28;20420;-69
2023/04/04 01:55:05;;;;;;;;;;;0.00;99.90;;;;;;5025382;28;19928;-69
2023/04/04 01:57:32;;;;;;;;;;;0.00;99.90;;;;;;5024664;28;20169;-68
2023/04/04 02:00:00;;;;;;;;;;;-0.10;99.90;;;;;;5025230;28;19936;-68
2023/04/04 02:02:27;;;;;;;;;;;-0.10;99.90;;;;;;5025083;28;19922;-69
2023/04/04 02:04:54;;;;;;;;;;;-0.10;99.90;;;;;;5025406;28;19929;-69
2023/04/04 02:07:20;;;;;;;;;;;-0.20;99.90;;;;;;5024569;28;19925;-69
2023/04/04 02:09:47;;;;;;;;;;;-0.20;99.90;;;;;;5025416;28;19993;-69
2023/04/04 02:12:14;;;;;;;;;;;-0.10;99.90;;;;;;5025066;28;19988;-69
2023/04/04 02:14:40;;;;;;;;;;;-0.10;99.90;;;;;;5025054;28;19929;-68
2023/04/04 02:17:08;;;;;;;;;;;-0.10;99.90;;;;;;5024562;28;19927;-68
2023/04/04 02:19:35;;;;;;;;;;;-0.10;99.90;;;;;;5024780;28;20231;-68
2023/04/04 02:22:02;;;;;;;;;;;-0.20;99.90;;;;;;5025025;28;19926;-69
2023/04/04 02:24:28;;;;;;;;;;;-0.20;99.90;;;;;;5024602;28;19985;-68
2023/04/04 02:26:55;;;;;;;;;;;-0.30;99.90;;;;;;5023872;28;19921;-68
2023/04/04 02:29:22;;;;;;;;;;;-0.20;99.90;;;;;;5024915;28;19922;-69
2023/04/04 02:31:48;;;;;;;;;;;-0.20;99.90;;;;;;5025017;28;19992;-68
2023/04/04 02:34:17;;;;;;;;;;;-0.30;99.90;;;;;;5024824;28;20142;-69
2023/04/04 02:36:43;;;;;;;;;;;-0.30;99.90;;;;;;5023765;28;20228;-68
2023/04/04 02:39:10;;;;;;;;;;;-0.30;99.90;;;;;;5024537;28;19956;-69
2023/04/04 02:41:40;;;;;;;;;;;-0.30;99.90;;;;;;5023840;28;19981;-69
2023/04/04 02:44:07;;;;;;;;;;;-0.30;99.90;;;;;;5025078;28;19921;-69
2023/04/04 02:46:34;;;;;;;;;;;-0.30;99.90;;;;;;5023851;28;19936;-69
2023/04/04 02:49:01;;;;;;;;;;;-0.40;99.90;;;;;;5024052;28;20281;-69
2023/04/04 02:51:29;;;;;;;;;;;-0.40;99.90;;;;;;5023833;28;20232;-68
2023/04/04 02:53:56;;;;;;;;;;;-0.40;99.90;;;;;;5024470;28;19928;-69
2023/04/04 02:56:22;;;;;;;;;;;-0.40;99.90;;;;;;5023696;28;19960;-69
2023/04/04 02:58:49;;;;;;;;;;;-0.50;99.90;;;;;;5024487;28;19952;-68
2023/04/04 03:01:16;;;;;;;;;;;-0.50;99.90;;;;;;5024127;28;19922;-68
2023/04/04 03:03:43;;;;;;;;;;;-0.50;99.90;;;;;;5023966;28;19928;-69
2023/04/04 03:06:10;;;;;;;;;;;-0.50;99.90;;;;;;5023039;28;20284;-67
2023/04/04 03:08:38;;;;;;;;;;;-0.50;99.90;;;;;;5024023;28;19928;-69
2023/04/04 03:11:04;;;;;;;;;;;-0.50;99.90;;;;;;5023662;28;19927;-68
2023/04/04 03:13:31;;;;;;;;;;;-0.40;99.90;;;;;;5024256;28;19948;-69
2023/04/04 03:15:59;;;;;;;;;;;-0.40;99.90;;;;;;5023483;28;20124;-68
2023/04/04 03:18:26;;;;;;;;;;;-0.50;99.90;;;;;;5024090;28;19952;-69
2023/04/04 03:20:53;;;;;;;;;;;-0.50;99.90;;;;;;5023968;28;19963;-68
2023/04/04 03:23:19;;;;;;;;;;;-0.50;99.90;;;;;;5024027;28;19921;-68
2023/04/04 03:25:47;;;;;;;;;;;-0.50;99.90;;;;;;5023444;28;19921;-68
2023/04/04 03:28:14;;;;;;;;;;;-0.50;99.90;;;;;;5023865;28;19988;-68
2023/04/04 03:30:40;;;;;;;;;;;-0.60;99.90;;;;;;5023378;28;19988;-68
2023/04/04 03:33:08;;;;;;;;;;;-0.60;99.90;;;;;;5024094;28;19953;-68
2023/04/04 03:35:37;;;;;;;;;;;-0.60;99.90;;;;;;5023500;28;19921;-67
2023/04/04 03:38:04;;;;;;;;;;;-0.70;99.90;;;;;;5023167;28;19985;-69
2023/04/04 03:40:30;;;;;;;;;;;-0.70;99.90;;;;;;5021648;28;19921;-68
2023/04/04 03:42:58;;;;;;;;;;;-0.70;99.90;;;;;;5023055;28;19927;-68
2023/04/04 03:45:25;;;;;;;;;;;-0.70;99.90;;;;;;5023496;28;19956;-69
2023/04/04 03:47:51;;;;;;;;;;;-0.70;99.90;;;;;;5022996;28;19959;-69
2023/04/04 03:50:18;;;;;;;;;;;-0.80;99.90;;;;;;5028188;28;20267;-70
2023/04/04 03:52:46;;;;;;;;;;;-0.80;99.90;;;;;;5039781;28;19922;-69
2023/04/04 03:55:14;;;;;;;;;;;-0.90;99.90;;;;;;5020814;28;19928;-69
2023/04/04 03:57:40;;;;;;;;;;;-0.90;99.90;;;;;;5022866;28;20001;-69
2023/04/04 04:00:09;;;;;;;;;;;-0.90;99.90;;;;;;5023671;28;19984;-69
2023/04/04 04:02:36;;;;;;;;;;;-0.90;99.90;;;;;;5026960;28;19921;-69
2023/04/04 04:05:03;;;;;;;;;;;-0.90;99.90;;;;;;5027254;28;19989;-69
2023/04/04 04:07:29;;;;;;;;;;;-1.00;99.90;;;;;;5026813;28;19943;-71
2023/04/04 04:09:56;;;;;;;;;;;-1.00;99.90;;;;;;5027625;28;19963;-69
2023/04/04 04:12:25;;;;;;;;;;;-1.00;99.90;;;;;;5027523;28;19990;-71
2023/04/04 04:14:51;;;;;;;;;;;-1.10;99.90;;;;;;5027214;28;19921;-67
2023/04/04 04:17:19;;;;;;;;;;;-1.10;99.90;;;;;;5026649;28;19928;-69
2023/04/04 04:19:46;;;;;;;;;;;-1.10;99.90;;;;;;5026975;28;19980;-68
2023/04/04 04:22:13;;;;;;;;;;;-1.10;99.90;;;;;;5027207;28;20014;-70
2023/04/04 04:24:39;;;;;;;;;;;-1.10;99.90;;;;;;5027266;28;19980;-69
2023/04/04 04:27:06;;;;;;;;;;;-1.10;99.90;;;;;;5026069;28;19921;-69
2023/04/04 04:29:33;;;;;;;;;;;-1.20;99.90;;;;;;5026689;28;19922;-69
2023/04/04 04:32:00;;;;;;;;;;;-1.20;99.90;;;;;;5027313;28;19922;-68
2023/04/04 04:34:28;;;;;;;;;;;-1.30;99.90;;;;;;5026715;28;19922;-69
2023/04/04 04:36:55;;;;;;;;;;;-1.30;99.90;;;;;;5026015;28;19968;-68
2023/04/04 04:39:21;;;;;;;;;;;-1.40;99.90;;;;;;5026532;28;20162;-69
2023/04/04 04:41:48;;;;;;;;;;;-1.40;99.90;;;;;;5026704;28;19988;-68
2023/04/04 04:44:15;;;;;;;;;;;-1.40;99.90;;;;;;5026722;28;19984;-68
2023/04/04 04:46:42;;;;;;;;;;;-1.40;99.90;;;;;;5026601;28;19996;-68
2023/04/04 04:49:08;;;;;;;;;;;-1.50;99.90;;;;;;5026866;28;20004;-67
2023/04/04 04:51:37;;;;;;;;;;;-1.50;99.90;;;;;;5023914;28;20247;-68
2023/04/04 04:54:04;;;;;;;;;;;-1.50;99.90;;;;;;5025686;28;19927;-66
2023/04/04 04:56:30;;;;;;;;;;;-1.50;99.90;;;;;;5004241;28;19996;-67
2023/04/04 04:58:57;;;;;;;;;;;-1.50;99.90;;;;;;5007029;28;20000;-68
2023/04/04 05:01:24;;;;;;;;;;;-1.50;99.90;;;;;;5006873;28;19992;-68
2023/04/04 05:03:51;;;;;;;;;;;-1.60;99.90;;;;;;5006679;28;19922;-67
2023/04/04 05:06:17;;;;;;;;;;;-1.60;99.90;;;;;;5005655;28;19993;-68
2023/04/04 05:08:45;;;;;;;;;;;-1.60;99.90;;;;;;5006750;28;19922;-68
2023/04/04 05:11:12;;;;;;;;;;;-1.60;99.90;;;;;;5006786;28;19922;-68
2023/04/04 05:13:39;;;;;;;;;;;-1.60;99.90;;;;;;5007584;28;20182;-68
2023/04/04 05:16:05;;;;;;;;;;;-1.70;99.90;;;;;;5025926;28;19921;-67
2023/04/04 05:18:32;;;;;;;;;;;-1.60;99.90;;;;;;5026167;28;19988;-69
2023/04/04 05:20:59;;;;;;;;;;;-1.50;99.90;;;;;;5025791;28;20264;-72
2023/04/04 05:23:26;;;;;;;;;;;-1.60;99.90;;;;;;5025943;28;19921;-68
2023/04/04 05:25:54;;;;;;;;;;;-1.60;99.90;;;;;;5025447;28;19928;-67
2023/04/04 05:28:20;;;;;;;;;;;-1.50;99.90;;;;;;5025419;28;20108;-70
2023/04/04 05:30:47;;;;;;;;;;;-1.60;99.90;;;;;;5023136;28;19927;-68
2023/04/04 05:33:14;;;;;;;;;;;-1.60;99.90;;;;;;5025260;28;19921;-68
2023/04/04 05:35:41;;;;;;;;;;;-1.60;99.90;;;;;;5025114;28;19922;-67
2023/04/04 05:38:07;;;;;;;;;;;-1.50;99.90;;;;;;5025649;28;20018;-70
2023/04/04 05:40:34;;;;;;;;;;;-1.50;99.90;;;;;;5026029;28;19993;-66
2023/04/04 05:43:03;;;;;;;;;;;-1.50;99.90;;;;;;5024052;28;19953;-68
2023/04/04 05:45:30;;;;;;;;;;;-1.50;99.90;;;;;;5025456;28;20156;-66
2023/04/04 05:47:56;;;;;;;;;;;-1.40;99.90;;;;;;5032615;28;19967;-67
2023/04/04 05:50:23;;;;;;;;;;;-1.30;99.90;;;;;;5045495;28;19921;-68
2023/04/04 05:52:53;;;;;;;;;;;-1.30;99.90;;;;;;5045392;28;20072;-67
2023/04/04 05:55:20;;;;;;;;;;;-1.20;99.90;;;;;;5042303;28;19984;-67
2023/04/04 05:57:47;;;;;;;;;;;-1.20;99.90;;;;;;5044394;28;19963;-67
2023/04/04 06:00:16;;;;;;;;;;;-1.10;99.90;;;;;;5045313;28;19952;-68
2023/04/04 06:02:43;;;;;;;;;;;-1.00;99.90;;;;;;5045181;28;19928;-67
2023/04/04 06:05:10;;;;;;;;;;;-0.90;99.90;;;;;;5036375;28;19921;-69
2023/04/04 06:07:36;;;;;;;;;;;-0.90;99.90;;;;;;5024409;28;19984;-67
2023/04/04 06:10:03;;;;;;;;;;;-0.80;99.90;;;;;;5025146;28;19984;-67
2023/04/04 06:12:30;;;;;;;;;;;-0.70;99.90;;;;;;5025146;28;19952;-67
2023/04/04 06:14:57;;;;;;;;;;;-0.60;99.90;;;;;;5025059;28;19921;-67
2023/04/04 06:17:25;;;;;;;;;;;-0.50;99.90;;;;;;5021081;28;20188;-67
2023/04/04 06:19:53;;;;;;;;;;;-0.50;99.90;;;;;;5024913;28;19921;-67
2023/04/04 06:22:20;;;;;;;;;;;-0.50;99.90;;;;;;5024920;28;19960;-69
2023/04/04 06:24:47;;;;;;;;;;;-0.40;99.90;;;;;;5024515;28;19956;-69
2023/04/04 06:27:13;;;;;;;;;;;-0.40;99.90;;;;;;5024436;28;19953;-69
2023/04/04 06:29:40;;;;;;;;;;;0.00;99.90;;;;;;5024522;28;20004;-68
2023/04/04 06:32:07;;;;;;;;;;;-0.30;99.90;;;;;;5024683;28;20224;-68
2023/04/04 06:34:37;;;;;;;;;;;-0.20;99.90;;;;;;5021110;28;19961;-66
2023/04/04 06:37:03;;;;;;;;;;;-0.20;99.90;;;;;;5024361;28;20418;-68
2023/04/04 06:39:33;;;;;;;;;;;-0.10;99.90;;;;;;5022549;28;19960;-68
2023/04/04 06:42:00;;;;;;;;;;;0.00;99.90;;;;;;5024710;28;20305;-67
2023/04/04 06:44:26;;;;;;;;;;;0.10;99.90;;;;;;5024525;28;19957;-67
2023/04/04 06:46:53;;;;;;;;;;;0.10;99.90;;;;;;5023516;28;19928;-68
2023/04/04 06:49:20;;;;;;;;;;;0.20;99.90;;;;;;5024535;28;19964;-67
2023/04/04 06:51:49;;;;;;;;;;;0.30;99.90;;;;;;5024736;28;20004;-67
2023/04/04 06:54:16;;;;;;;;;;;0.30;99.90;;;;;;5024238;28;20124;-67
2023/04/04 06:56:42;;;;;;;;;;;0.40;99.90;;;;;;5023542;28;19985;-66
2023/04/04 06:59:10;;;;;;;;;;;0.50;99.90;;;;;;5024098;28;19983;-68
2023/04/04 07:01:37;;;;;;;;;;;0.50;99.90;;;;;;5024276;28;19922;-68
2023/04/04 07:04:04;;;;;;;;;;;0.60;99.90;;;;;;5024303;28;19921;-68
2023/04/04 07:06:30;;;;;;;;;;;0.50;99.90;;;;;;5023384;28;19980;-68
2023/04/04 07:08:58;;;;;;;;;;;0.60;99.90;;;;;;5023814;28;19925;-68
2023/04/04 07:11:25;;;;;;;;;;;0.70;99.90;;;;;;5024195;28;20117;-68
2023/04/04 07:13:52;;;;;;;;;;;0.70;99.90;;;;;;5024069;28;19940;-68
2023/04/04 07:16:19;;;;;;;;;;;0.70;99.90;;;;;;5023251;28;20232;-68
2023/04/04 07:18:45;;;;;;;;;;;0.80;99.90;;;;;;5024192;28;19984;-67
2023/04/04 07:21:12;;;;;;;;;;;0.80;99.90;;;;;;5023983;28;19989;-68
2023/04/04 07:23:39;;;;;;;;;;;0.90;99.90;;;;;;5023980;28;19921;-66
2023/04/04 07:26:07;;;;;;;;;;;1.30;99.90;;;;;;5022847;28;20129;-68
2023/04/04 07:28:33;;;;;;;;;;;0.90;99.90;;;;;;5019748;28;19921;-67
2023/04/04 07:31:00;;;;;;;;;;;1.00;99.90;;;;;;5023882;28;19922;-69
2023/04/04 07:33:27;;;;;;;;;;;1.00;99.90;;;;;;5019628;28;19963;-68
2023/04/04 07:35:54;;;;;;;;;;;1.10;99.90;;;;;;5022357;28;19992;-68
2023/04/04 07:38:20;;;;;;;;;;;1.20;99.90;;;;;;5023255;28;19988;-68
2023/04/04 07:40:48;;;;;;;;;;;1.30;99.90;;;;;;5022809;28;19922;-68
2023/04/04 07:43:16;;;;;;;;;;;1.30;99.90;;;;;;5003921;28;19921;-68
2023/04/04 07:45:43;;;;;;;;;;;1.30;99.90;;;;;;5003411;28;19961;-68
2023/04/04 07:48:10;;;;;;;;;;;1.40;99.90;;;;;;5006549;28;19921;-68
2023/04/04 07:50:36;;;;;;;;;;;1.50;99.90;;;;;;5023621;28;19923;-68
2023/04/04 07:53:03;;;;;;;;;;;1.50;99.90;;;;;;5018820;28;19925;-69
2023/04/04 07:55:30;;;;;;;;;;;1.60;99.90;;;;;;5023544;28;19957;-69
2023/04/04 07:57:57;;;;;;;;;;;1.60;99.90;;;;;;5005924;28;19922;-68
2023/04/04 08:00:25;;;;;;;;;;;1.70;99.90;;;;;;5003858;28;20125;-68
2023/04/04 08:02:53;;;;;;;;;;;1.80;99.90;;;;;;5004111;28;19968;-68
2023/04/04 08:05:19;;;;;;;;;;;1.80;99.90;;;;;;5003534;28;19976;-68
2023/04/04 08:07:47;;;;;;;;;;;1.90;99.90;;;;;;5003276;28;19992;-70
2023/04/04 08:10:16;;;;;;;;;;;2.00;99.90;;;;;;5021626;28;19968;-67
2023/04/04 08:12:42;;;;;;;;;;;2.10;99.90;;;;;;5023147;28;19961;-67
2023/04/04 08:15:10;;;;;;;;;;;2.10;99.90;;;;;;5023092;28;19921;-68
2023/04/04 08:17:38;;;;;;;;;;;2.10;99.90;;;;;;5022984;28;19960;-67
2023/04/04 08:20:05;;;;;;;;;;;2.30;99.90;;;;;;5023313;28;20037;-68
2023/04/04 08:22:32;;;;;;;;;;;2.30;99.90;;;;;;5023323;28;19922;-68
2023/04/04 08:24:59;;;;;;;;;;;2.40;99.90;;;;;;5023064;28;19926;-68
2023/04/04 08:27:26;;;;;;;;;;;2.50;99.90;;;;;;5022058;28;19921;-68
2023/04/04 08:29:52;;;;;;;;;;;2.70;99.90;;;;;;5023313;28;19936;-67
2023/04/04 08:32:19;;;;;;;;;;;2.80;99.90;;;;;;5023011;28;19992;-67
2023/04/04 08:34:47;;;;;;;;;;;2.90;99.90;;;;;;5023163;28;19960;-68
2023/04/04 08:37:14;;;;;;;;;;;2.90;99.90;;;;;;5022619;28;19988;-67
2023/04/04 08:39:40;;;;;;;;;;;3.00;99.90;;;;;;5023364;28;19984;-67
2023/04/04 08:42:09;;;;;;;;;;;3.20;99.90;;;;;;5019480;28;20224;-67
2023/04/04 08:44:38;;;;;;;;;;;3.30;99.90;;;;;;5020388;28;19956;-69
2023/04/04 08:47:05;;;;;;;;;;;3.40;99.90;;;;;;5022371;28;20133;-68
2023/04/04 08:49:35;;;;;;;;;;;3.40;99.90;;;;;;5025796;28;19960;-66
2023/04/04 08:52:03;;;;;;;;;;;3.20;99.90;;;;;;5026841;28;20098;-67
2023/04/04 08:54:30;;;;;;;;;;;3.10;99.90;;;;;;5026836;28;20181;-67
2023/04/04 08:56:57;;;;;;;;;;;3.00;99.90;;;;;;5026535;28;19922;-67
2023/04/04 08:59:24;;;;;;;;;;;3.00;99.90;;;;;;5026281;28;19922;-67
2023/04/04 09:01:57;;;;;;;;;;;3.00;99.90;;;;;;5026534;28;19943;-67
2023/04/04 09:04:24;;;;;;;;;;;3.00;99.90;;;;;;5026407;28;19989;-67
2023/04/04 09:06:51;;;;;;;;;;;2.80;99.90;;;;;;5025704;28;19943;-66
2023/04/04 09:09:20;;;;;;;;;;;2.80;99.90;;;;;;5025966;28;19928;-67
2023/04/04 09:11:47;;;;;;;;;;;2.70;99.90;;;;;;5026204;28;20102;-67
2023/04/04 09:14:14;;;;;;;;;;;2.80;99.90;;;;;;5026054;28;19968;-67
2023/04/04 09:16:41;;;;;;;;;;;2.80;99.90;;;;;;5025449;28;19981;-68
2023/04/04 09:19:07;;;;;;;;;;;2.80;99.90;;;;;;5025888;28;19929;-67
2023/04/04 09:21:34;;;;;;;;;;;2.80;99.90;;;;;;5026491;28;19984;-67
2023/04/04 09:24:01;;;;;;;;;;;2.80;99.90;;;;;;5026480;28;19922;-67
2023/04/04 09:26:46;;;;;;;;;;;2.80;99.90;;;;;;5025291;28;19922;-68
2023/04/04 09:29:12;;;;;;;;;;;2.80;99.90;;;;;;5026204;28;20166;-67
2023/04/04 09:31:39;;;;;;;;;;;2.80;99.90;;;;;;5027128;28;20117;-67
2023/04/04 09:34:06;;;;;;;;;;;2.90;99.90;;;;;;5027394;28;20264;-68
2023/04/04 09:36:33;;;;;;;;;;;2.90;99.90;;;;;;5025949;28;19928;-67
2023/04/04 09:39:00;;;;;;;;;;;2.90;99.90;;;;;;5025824;28;19981;-67
2023/04/04 09:41:27;;;;;;;;;;;2.90;99.90;;;;;;5025445;28;19934;-68
2023/04/04 09:43:57;;;;;;;;;;;3.00;99.90;;;;;;5025976;28;19921;-67
2023/04/04 09:46:25;;;;;;;;;;;3.00;99.90;;;;;;5025429;28;19984;-67
2023/04/04 09:48:54;;;;;;;;;;;2.90;99.90;;;;;;5025426;28;19921;-67
2023/04/04 09:51:20;;;;;;;;;;;3.10;99.90;;;;;;5016973;28;19921;-67
2023/04/04 09:53:47;;;;;;;;;;;3.30;99.90;;;;;;5025642;28;19984;-67
2023/04/04 09:56:14;;;;;;;;;;;3.30;99.90;;;;;;5025133;28;19960;-67
2023/04/04 09:58:41;;;;;;;;;;;3.30;99.90;;;;;;5024909;28;20086;-67
2023/04/04 10:01:09;;;;;;;;;;;3.50;99.90;;;;;;5024357;28;19981;-67
2023/04/04 10:03:36;;;;;;;;;;;3.50;99.90;;;;;;5025426;28;19964;-67
2023/04/04 10:06:04;;;;;;;;;;;3.60;99.90;;;;;;5024460;28;19989;-67
2023/04/04 10:08:30;;;;;;;;;;;3.50;99.90;;;;;;5025085;28;19921;-68
2023/04/04 10:10:58;;;;;;;;;;;3.50;99.90;;;;;;5023457;28;19994;-66
2023/04/04 10:13:27;;;;;;;;;;;3.60;99.90;;;;;;5025343;28;19943;-67
2023/04/04 10:15:56;;;;;;;;;;;3.60;99.90;;;;;;5024206;28;19928;-67
2023/04/04 10:18:25;;;;;;;;;;;3.60;99.90;;;;;;5024762;28;19929;-67
2023/04/04 10:20:53;;;;;;;;;;;3.70;99.90;;;;;;5025157;28;19922;-67
2023/04/04 10:23:22;;;;;;;;;;;3.80;99.90;;;;;;5024687;28;20209;-67
2023/04/04 10:25:49;;;;;;;;;;;3.90;99.90;;;;;;5023378;28;19952;-67
2023/04/04 10:28:16;;;;;;;;;;;4.10;99.90;;;;;;5022912;28;19968;-68
2023/04/04 10:30:45;;;;;;;;;;;4.20;99.90;;;;;;5024180;28;19922;-68
2023/04/04 10:33:17;;;;;;;;;;;4.20;99.90;;;;;;5024909;28;19921;-68
2023/04/04 10:35:47;;;;;;;;;;;4.30;99.90;;;;;;5024156;28;19921;-66
2023/04/04 10:38:14;;;;;;;;;;;4.30;99.90;;;;;;5021608;28;20221;-68
2023/04/04 10:40:42;;;;;;;;;;;4.20;99.90;;;;;;5022437;28;19993;-67
2023/04/04 10:43:10;;;;;;;;;;;4.10;99.90;;;;;;5024108;28;19949;-68
2023/04/04 10:45:38;;;;;;;;;;;4.30;99.90;;;;;;5024090;28;19927;-66
2023/04/04 10:48:06;;;;;;;;;;;4.30;99.90;;;;;;5023779;28;19922;-67
2023/04/04 10:50:33;;;;;;;;;;;4.40;99.90;;;;;;5024218;28;19935;-66
2023/04/04 10:53:03;;;;;;;;;;;4.50;99.90;;;;;;5022770;28;19928;-67
2023/04/04 10:55:30;;;;;;;;;;;4.50;99.90;;;;;;5024094;28;19922;-67
2023/04/04 10:57:57;;;;;;;;;;;4.40;99.90;;;;;;5023685;28;20206;-67
2023/04/04 11:00:24;;;;;;;;;;;4.40;99.90;;;;;;5024386;28;19988;-68
2023/04/04 11:02:54;;;;;;;;;;;4.50;99.90;;;;;;5024435;28;19922;-66
2023/04/04 11:05:22;;;;;;;;;;;4.60;99.90;;;;;;5021105;28;19944;-67
2023/04/04 11:07:53;;;;;;;;;;;4.70;99.90;;;;;;5023576;28;19921;-66
2023/04/04 11:10:25;;;;;;;;;;;4.80;99.90;;;;;;5022608;28;19925;-68
2023/04/04 11:12:53;;;;;;;;;;;4.90;99.90;;;;;;5023667;28;20020;-68
2023/04/04 11:15:21;;;;;;;;;;;5.10;99.90;;;;;;5021307;28;19922;-68
2023/04/04 11:17:51;;;;;;;;;;;5.20;99.90;;;;;;5023571;28;20000;-67
2023/04/04 11:20:18;;;;;;;;;;;5.30;99.90;;;;;;5024045;28;19984;-68
2023/04/04 11:22:45;;;;;;;;;;;5.50;99.90;;;;;;5024018;28;19921;-68
2023/04/04 11:25:30;;;;;;;;;;;5.70;99.90;;;;;;5020608;28;20209;-67
2023/04/04 11:27:59;;;;;;;;;;;5.80;99.90;;;;;;5023197;28;19984;-67
2023/04/04 11:30:27;;;;;;;;;;;6.00;99.90;;;;;;5023606;28;19921;-67
2023/04/04 11:32:57;;;;;;;;;;;6.10;99.90;;;;;;5022704;28;19937;-69
2023/04/04 11:35:23;;;;;;;;;;;6.20;99.90;;;;;;5022014;28;19963;-68
2023/04/04 11:38:00;;;;;;;;;;;6.10;99.90;;;;;;5022618;28;19953;-68
2023/04/04 11:40:37;;;;;;;;;;;6.20;99.90;;;;;;5023755;28;19925;-68
2023/04/04 11:43:09;;;;;;;;;;;6.40;99.90;;;;;;5023880;28;19921;-67
2023/04/04 11:45:37;;;;;;;;;;;6.60;99.90;;;;;;5020493;28;19921;-67
2023/04/04 11:48:04;;;;;;;;;;;6.80;99.90;;;;;;5023261;28;19925;-68
2023/04/04 11:50:34;;;;;;;;;;;6.90;99.90;;;;;;5023566;28;19921;-67
2023/04/04 11:53:04;;;;;;;;;;;7.10;99.90;;;;;;5023468;28;19922;-67
2023/04/04 11:55:31;;;;;;;;;;;7.20;99.90;;;;;;5020654;28;19921;-67
2023/04/04 11:58:05;;;;;;;;;;;7.40;99.90;;;;;;5022826;28;19980;-68
2023/04/04 12:00:35;;;;;;;;;;;7.80;99.90;;;;;;5023357;28;19922;-68
2023/04/04 12:03:04;;;;;;;;;;;8.00;99.90;;;;;;5022116;28;19922;-68
2023/04/04 12:05:32;;;;;;;;;;;8.20;99.90;;;;;;5022323;28;20000;-67
2023/04/04 12:08:01;;;;;;;;;;;8.20;99.90;;;;;;5020284;28;19984;-68
2023/04/04 12:10:28;;;;;;;;;;;8.20;99.90;;;;;;5023208;28;19928;-67
2023/04/04 12:12:55;;;;;;;;;;;7.90;99.90;;;;;;5023277;28;19922;-67
2023/04/04 12:15:23;;;;;;;;;;;7.30;99.90;;;;;;5023120;28;19921;-68
2023/04/04 12:17:52;;;;;;;;;;;6.80;99.90;;;;;;5022773;28;19963;-67
2023/04/04 12:20:21;;;;;;;;;;;6.50;99.90;;;;;;5023490;28;19921;-68
2023/04/04 12:22:48;;;;;;;;;;;6.30;99.90;;;;;;5025343;28;19988;-68
2023/04/04 12:25:15;;;;;;;;;;;6.30;99.90;;;;;;5026994;28;19921;-68
2023/04/04 12:27:42;;;;;;;;;;;6.10;99.90;;;;;;5026339;28;19996;-68
2023/04/04 12:30:14;;;;;;;;;;;5.80;99.90;;;;;;5027294;28;19921;-68
2023/04/04 12:32:41;;;;;;;;;;;5.80;99.90;;;;;;5027058;28;19928;-68
2023/04/04 12:35:10;;;;;;;;;;;5.70;99.90;;;;;;5026979;28;20120;-67
2023/04/04 12:37:36;;;;;;;;;;;6.00;99.90;;;;;;5026345;28;19922;-68
2023/04/04 12:40:03;;;;;;;;;;;6.50;99.90;;;;;;5026880;28;19927;-68
2023/04/04 12:42:31;;;;;;;;;;;7.00;99.90;;;;;;5026697;28;19971;-69
2023/04/04 12:44:58;;;;;;;;;;;7.40;99.90;;;;;;5044298;28;20196;-67
2023/04/04 12:47:27;;;;;;;;;;;7.20;99.90;;;;;;5027018;28;20198;-68
2023/04/04 12:49:54;;;;;;;;;;;7.00;99.90;;;;;;5046349;28;19956;-68
2023/04/04 12:52:22;;;;;;;;;;;6.70;99.90;;;;;;5046745;28;20113;-67
2023/04/04 12:54:50;;;;;;;;;;;6.40;99.90;;;;;;5046129;28;19928;-67
2023/04/04 12:57:20;;;;;;;;;;;6.30;99.90;;;;;;5033584;28;19922;-67
2023/04/04 12:59:47;;;;;;;;;;;6.20;99.90;;;;;;5026439;28;19921;-67
2023/04/04 13:02:15;;;;;;;;;;;6.20;99.90;;;;;;5026465;28;19922;-66
2023/04/04 13:04:45;;;;;;;;;;;6.20;99.90;;;;;;5025965;28;19929;-70
2023/04/04 13:07:25;;;;;;;;;;;6.20;99.90;;;;;;5025404;28;19953;-67
2023/04/04 13:09:57;;;;;;;;;;;6.40;99.90;;;;;;5025790;28;19922;-67
2023/04/04 13:12:27;;;;;;;;;;;6.80;99.90;;;;;;5028440;28;19921;-68
2023/04/04 13:15:00;;;;;;;;;;;7.10;99.90;;;;;;5036235;28;19928;-67
2023/04/04 13:17:26;;;;;;;;;;;7.20;99.90;;;;;;5025516;28;19929;-68
2023/04/04 13:19:53;;;;;;;;;;;7.70;99.90;;;;;;5025959;28;19988;-68
2023/04/04 13:22:19;;;;;;;;;;;8.30;99.90;;;;;;5026126;28;19984;-68
2023/04/04 13:24:46;;;;;;;;;;;8.50;99.90;;;;;;5025433;28;20223;-68
2023/04/04 13:27:20;;;;;;;;;;;8.70;99.90;;;;;;5022398;28;19960;-67
2023/04/04 13:29:47;;;;;;;;;;;8.40;98.90;;;;;;5025698;28;19921;-67
2023/04/04 13:32:15;;;;;;;;;;;8.10;98.10;;;;;;5025822;28;19922;-68
2023/04/04 13:34:42;;;;;;;;;;;8.20;98.50;;;;;;5025077;28;19944;-67
2023/04/04 13:37:08;;;;;;;;;;;8.10;98.50;;;;;;5025429;28;19922;-68
2023/04/04 13:39:35;;;;;;;;;;;8.30;99.90;;;;;;5024801;28;19980;-68
2023/04/04 13:42:02;;;;;;;;;;;8.90;99.80;;;;;;5025016;28;19922;-67
2023/04/04 13:44:30;;;;;;;;;;;9.00;99.20;;;;;;5025741;28;20029;-68
2023/04/04 13:46:56;;;;;;;;;;;8.80;97.70;;;;;;5025024;28;19988;-67
2023/04/04 13:49:23;;;;;;;;;;;8.20;98.10;;;;;;5025424;28;20172;-69
2023/04/04 13:51:50;;;;;;;;;;;7.70;98.70;;;;;;5025657;28;19996;-66
2023/04/04 13:54:16;;;;;;;;;;;7.20;99.90;;;;;;5025684;28;20112;-67
2023/04/04 13:56:43;;;;;;;;;;;7.00;99.60;;;;;;5024357;28;19988;-66
2023/04/04 13:59:10;;;;;;;;;;;6.80;99.90;;;;;;5025288;28;19947;-70
2023/04/04 14:01:38;;;;;;;;;;;7.00;99.90;;;;;;5025354;28;19921;-68
2023/04/04 14:04:04;;;;;;;;;;;7.40;99.90;;;;;;5025100;28;20235;-67
2023/04/04 14:06:31;;;;;;;;;;;7.90;99.90;;;;;;5023782;28;19921;-68
2023/04/04 14:08:58;;;;;;;;;;;8.30;99.90;;;;;;5025170;28;19921;-68
2023/04/04 14:11:29;;;;;;;;;;;8.30;99.40;;;;;;5024667;28;20322;-68
2023/04/04 14:13:56;;;;;;;;;;;7.80;99.60;;;;;;5025078;28;19928;-68
2023/04/04 14:16:23;;;;;;;;;;;7.40;99.50;;;;;;5024144;28;20181;-67
2023/04/04 14:18:51;;;;;;;;;;;7.00;99.80;;;;;;5025134;28;19944;-67
2023/04/04 14:21:17;;;;;;;;;;;6.90;99.90;;;;;;5024901;28;19984;-68
2023/04/04 14:23:44;;;;;;;;;;;7.00;99.90;;;;;;5025014;28;20116;-68
2023/04/04 14:26:11;;;;;;;;;;;7.40;99.90;;;;;;5024035;28;19956;-68
2023/04/04 14:28:38;;;;;;;;;;;7.80;99.90;;;;;;5024388;28;19957;-68